sensor_id;sensor_type;location;lat;lon;timestamp;temperature;humidity
41256;DHT22;26989;45.524;10.938;2023-02-28T00:00:33;4.90;92.30
41256;DHT22;26989;45.524;10.938;2023-02-28T00:03:00;5.00;92.30
41256;DHT22;26989;45.524;10.938;2023-02-28T00:05:28;5.00;92.10
41256;DHT22;26989;45.524;10.938;2023-02-28T00:07:55;5.00;92.10
41256;DHT22;26989;45.524;10.938;2023-02-28T00:10:24;5.00;92.10
41256;DHT22;26989;45.524;10.938;2023-02-28T00:12:52;5.00;92.20
41256;DHT22;26989;45.524;10.938;2023-02-28T00:15:20;5.00;92.30
41256;DHT22;26989;45.524;10.938;2023-02-28T00:17:49;4.90;92.50
41256;DHT22;26989;45.524;10.938;2023-02-28T00:20:16;4.90;92.50
41256;DHT22;26989;45.524;10.938;2023-02-28T00:22:45;4.90;92.30
41256;DHT22;26989;45.524;10.938;2023-02-28T00:25:14;5.00;92.20
41256;DHT22;26989;45.524;10.938;2023-02-28T00:27:42;5.00;92.10
41256;DHT22;26989;45.524;10.938;2023-02-28T00:30:12;5.00;92.10
41256;DHT22;26989;45.524;10.938;2023-02-28T00:32:39;5.00;92.10
41256;DHT22;26989;45.524;10.938;2023-02-28T00:35:07;4.90;92.40
41256;DHT22;26989;45.524;10.938;2023-02-28T00:37:34;4.90;92.30
41256;DHT22;26989;45.524;10.938;2023-02-28T00:40:02;4.80;92.20
41256;DHT22;26989;45.524;10.938;2023-02-28T00:42:31;4.80;92.50
41256;DHT22;26989;45.524;10.938;2023-02-28T00:44:58;4.80;92.30
41256;DHT22;26989;45.524;10.938;2023-02-28T00:47:25;4.80;92.60
41256;DHT22;26989;45.524;10.938;2023-02-28T00:49:52;4.80;92.20
41256;DHT22;26989;45.524;10.938;2023-02-28T00:52:19;4.90;92.00
41256;DHT22;26989;45.524;10.938;2023-02-28T00:54:46;4.80;92.00
41256;DHT22;26989;45.524;10.938;2023-02-28T00:57:12;4.90;91.80
41256;DHT22;26989;45.524;10.938;2023-02-28T00:59:39;4.90;91.60
41256;DHT22;26989;45.524;10.938;2023-02-28T01:02:06;4.90;91.60
41256;DHT22;26989;45.524;10.938;2023-02-28T01:04:33;5.00;91.60
41256;DHT22;26989;45.524;10.938;2023-02-28T01:07:00;4.90;91.50
41256;DHT22;26989;45.524;10.938;2023-02-28T01:09:26;4.90;91.30
41256;DHT22;26989;45.524;10.938;2023-02-28T01:11:53;4.90;91.60
41256;DHT22;26989;45.524;10.938;2023-02-28T01:14:20;5.00;91.20
41256;DHT22;26989;45.524;10.938;2023-02-28T01:16:47;4.90;91.30
41256;DHT22;26989;45.524;10.938;2023-02-28T01:19:14;5.00;91.00
41256;DHT22;26989;45.524;10.938;2023-02-28T01:21:41;5.00;91.00
41256;DHT22;26989;45.524;10.938;2023-02-28T01:24:07;4.90;91.10
41256;DHT22;26989;45.524;10.938;2023-02-28T01:26:35;4.90;91.00
41256;DHT22;26989;45.524;10.938;2023-02-28T01:29:02;4.90;91.20
41256;DHT22;26989;45.524;10.938;2023-02-28T01:31:29;5.00;91.00
41256;DHT22;26989;45.524;10.938;2023-02-28T01:33:56;5.00;91.00
41256;DHT22;26989;45.524;10.938;2023-02-28T01:36:24;5.00;91.10
41256;DHT22;26989;45.524;10.938;2023-02-28T01:38:52;4.90;91.10
41256;DHT22;26989;45.524;10.938;2023-02-28T01:41:28;4.90;91.20
41256;DHT22;26989;45.524;10.938;2023-02-28T01:44:02;4.90;91.20
41256;DHT22;26989;45.524;10.938;2023-02-28T01:46:34;4.90;91.20
41256;DHT22;26989;45.524;10.938;2023-02-28T01:49:09;4.90;91.20
41256;DHT22;26989;45.524;10.938;2023-02-28T01:51:42;4.90;91.10
41256;DHT22;26989;45.524;10.938;2023-02-28T01:54:22;4.90;91.10
41256;DHT22;26989;45.524;10.938;2023-02-28T01:57:03;4.90;91.10
41256;DHT22;26989;45.524;10.938;2023-02-28T01:59:38;4.80;91.10
41256;DHT22;26989;45.524;10.938;2023-02-28T02:02:13;4.80;91.20
41256;DHT22;26989;45.524;10.938;2023-02-28T02:04:50;4.80;91.40
41256;DHT22;26989;45.524;10.938;2023-02-28T02:07:18;4.80;91.40
41256;DHT22;26989;45.524;10.938;2023-02-28T02:09:45;4.70;91.30
41256;DHT22;26989;45.524;10.938;2023-02-28T02:12:35;4.80;91.20
41256;DHT22;26989;45.524;10.938;2023-02-28T02:15:17;4.80;91.30
41256;DHT22;26989;45.524;10.938;2023-02-28T02:17:53;4.90;91.10
41256;DHT22;26989;45.524;10.938;2023-02-28T02:20:57;4.90;91.20
41256;DHT22;26989;45.524;10.938;2023-02-28T02:34:55;5.10;90.50
41256;DHT22;26989;45.524;10.938;2023-02-28T02:42:59;5.00;90.90
41256;DHT22;26989;45.524;10.938;2023-02-28T02:45:46;5.00;90.60
41256;DHT22;26989;45.524;10.938;2023-02-28T02:48:18;5.00;90.70
41256;DHT22;26989;45.524;10.938;2023-02-28T02:50:51;5.00;90.60
41256;DHT22;26989;45.524;10.938;2023-02-28T02:53:24;5.00;90.80
41256;DHT22;26989;45.524;10.938;2023-02-28T02:55:53;4.90;90.80
41256;DHT22;26989;45.524;10.938;2023-02-28T02:58:30;5.00;90.90
41256;DHT22;26989;45.524;10.938;2023-02-28T03:01:00;4.90;90.80
41256;DHT22;26989;45.524;10.938;2023-02-28T03:03:29;4.90;90.70
41256;DHT22;26989;45.524;10.938;2023-02-28T03:05:59;5.00;90.60
41256;DHT22;26989;45.524;10.938;2023-02-28T03:08:28;4.90;90.70
41256;DHT22;26989;45.524;10.938;2023-02-28T03:10:58;4.90;90.90
41256;DHT22;26989;45.524;10.938;2023-02-28T03:13:47;4.90;90.70
41256;DHT22;26989;45.524;10.938;2023-02-28T03:19:24;4.90;90.80
41256;DHT22;26989;45.524;10.938;2023-02-28T03:22:21;4.80;90.90
41256;DHT22;26989;45.524;10.938;2023-02-28T03:24:51;4.80;90.90
41256;DHT22;26989;45.524;10.938;2023-02-28T03:27:35;4.80;91.00
41256;DHT22;26989;45.524;10.938;2023-02-28T03:32:55;4.90;90.70
41256;DHT22;26989;45.524;10.938;2023-02-28T03:35:29;5.00;90.70
41256;DHT22;26989;45.524;10.938;2023-02-28T03:38:05;4.90;90.80
41256;DHT22;26989;45.524;10.938;2023-02-28T03:40:35;4.80;90.80
41256;DHT22;26989;45.524;10.938;2023-02-28T03:43:09;4.80;91.10
41256;DHT22;26989;45.524;10.938;2023-02-28T03:45:39;4.70;91.10
41256;DHT22;26989;45.524;10.938;2023-02-28T03:50:50;4.70;92.60
41256;DHT22;26989;45.524;10.938;2023-02-28T03:53:28;4.50;93.20
41256;DHT22;26989;45.524;10.938;2023-02-28T03:56:16;4.40;93.90
41256;DHT22;26989;45.524;10.938;2023-02-28T03:58:55;4.30;94.50
41256;DHT22;26989;45.524;10.938;2023-02-28T04:01:40;4.20;94.80
41256;DHT22;26989;45.524;10.938;2023-02-28T04:04:09;4.10;95.40
41256;DHT22;26989;45.524;10.938;2023-02-28T04:06:37;4.00;95.80
41256;DHT22;26989;45.524;10.938;2023-02-28T04:09:05;3.90;96.00
41256;DHT22;26989;45.524;10.938;2023-02-28T04:14:06;3.70;96.10
41256;DHT22;26989;45.524;10.938;2023-02-28T04:16:36;3.80;95.90
41256;DHT22;26989;45.524;10.938;2023-02-28T04:19:04;3.70;95.80
41256;DHT22;26989;45.524;10.938;2023-02-28T04:21:35;3.50;95.90
41256;DHT22;26989;45.524;10.938;2023-02-28T04:24:03;3.40;96.10
41256;DHT22;26989;45.524;10.938;2023-02-28T04:26:34;3.40;96.10
41256;DHT22;26989;45.524;10.938;2023-02-28T04:29:06;3.40;96.20
41256;DHT22;26989;45.524;10.938;2023-02-28T04:31:34;3.20;96.60
41256;DHT22;26989;45.524;10.938;2023-02-28T04:34:01;3.10;96.90
41256;DHT22;26989;45.524;10.938;2023-02-28T04:36:28;3.10;96.90
41256;DHT22;26989;45.524;10.938;2023-02-28T04:38:56;3.20;97.00
41256;DHT22;26989;45.524;10.938;2023-02-28T04:41:23;3.10;96.90
41256;DHT22;26989;45.524;10.938;2023-02-28T04:43:53;3.10;97.00
41256;DHT22;26989;45.524;10.938;2023-02-28T04:46:20;3.00;97.40
41256;DHT22;26989;45.524;10.938;2023-02-28T04:48:47;2.80;98.10
41256;DHT22;26989;45.524;10.938;2023-02-28T04:51:17;2.70;98.00
41256;DHT22;26989;45.524;10.938;2023-02-28T04:53:44;2.60;98.10
41256;DHT22;26989;45.524;10.938;2023-02-28T04:56:14;2.50;98.00
41256;DHT22;26989;45.524;10.938;2023-02-28T04:58:41;2.40;98.50
41256;DHT22;26989;45.524;10.938;2023-02-28T05:01:34;2.20;99.00
41256;DHT22;26989;45.524;10.938;2023-02-28T05:04:03;2.10;99.20
41256;DHT22;26989;45.524;10.938;2023-02-28T05:06:32;2.10;99.20
41256;DHT22;26989;45.524;10.938;2023-02-28T05:08:59;2.20;99.40
41256;DHT22;26989;45.524;10.938;2023-02-28T05:11:29;2.20;99.20
41256;DHT22;26989;45.524;10.938;2023-02-28T05:14:02;2.20;99.10
41256;DHT22;26989;45.524;10.938;2023-02-28T05:16:30;2.30;99.10
41256;DHT22;26989;45.524;10.938;2023-02-28T05:18:57;2.30;99.00
41256;DHT22;26989;45.524;10.938;2023-02-28T05:21:36;2.10;99.10
41256;DHT22;26989;45.524;10.938;2023-02-28T05:24:06;2.10;99.20
41256;DHT22;26989;45.524;10.938;2023-02-28T05:26:38;2.10;99.20
41256;DHT22;26989;45.524;10.938;2023-02-28T05:29:05;1.90;99.50
41256;DHT22;26989;45.524;10.938;2023-02-28T05:31:33;1.80;99.80
41256;DHT22;26989;45.524;10.938;2023-02-28T05:33:59;1.80;99.90
41256;DHT22;26989;45.524;10.938;2023-02-28T05:36:27;1.90;99.90
41256;DHT22;26989;45.524;10.938;2023-02-28T05:38:53;1.90;99.90
41256;DHT22;26989;45.524;10.938;2023-02-28T05:41:20;2.00;99.80
41256;DHT22;26989;45.524;10.938;2023-02-28T05:43:48;2.00;99.70
41256;DHT22;26989;45.524;10.938;2023-02-28T05:46:15;1.90;99.80
41256;DHT22;26989;45.524;10.938;2023-02-28T05:48:46;1.90;99.80
41256;DHT22;26989;45.524;10.938;2023-02-28T05:51:13;2.00;99.80
41256;DHT22;26989;45.524;10.938;2023-02-28T05:53:40;2.00;99.50
41256;DHT22;26989;45.524;10.938;2023-02-28T05:56:07;2.10;99.40
41256;DHT22;26989;45.524;10.938;2023-02-28T05:58:34;2.20;99.20
41256;DHT22;26989;45.524;10.938;2023-02-28T06:01:23;2.30;99.20
41256;DHT22;26989;45.524;10.938;2023-02-28T06:03:50;2.30;99.20
41256;DHT22;26989;45.524;10.938;2023-02-28T06:06:17;2.40;99.10
41256;DHT22;26989;45.524;10.938;2023-02-28T06:08:44;2.40;99.20
41256;DHT22;26989;45.524;10.938;2023-02-28T06:11:11;2.40;99.20
41256;DHT22;26989;45.524;10.938;2023-02-28T06:13:38;2.50;99.20
41256;DHT22;26989;45.524;10.938;2023-02-28T06:16:05;2.50;99.20
41256;DHT22;26989;45.524;10.938;2023-02-28T06:18:32;2.50;99.20
41256;DHT22;26989;45.524;10.938;2023-02-28T06:20:59;2.60;99.30
41256;DHT22;26989;45.524;10.938;2023-02-28T06:23:25;2.60;99.10
41256;DHT22;26989;45.524;10.938;2023-02-28T06:25:52;2.60;99.50
41256;DHT22;26989;45.524;10.938;2023-02-28T06:28:19;2.80;99.30
41256;DHT22;26989;45.524;10.938;2023-02-28T06:30:46;2.80;99.20
41256;DHT22;26989;45.524;10.938;2023-02-28T06:33:13;2.90;99.10
41256;DHT22;26989;45.524;10.938;2023-02-28T06:35:44;2.90;99.10
41256;DHT22;26989;45.524;10.938;2023-02-28T06:38:11;2.90;99.10
41256;DHT22;26989;45.524;10.938;2023-02-28T06:40:38;2.90;98.60
41256;DHT22;26989;45.524;10.938;2023-02-28T06:43:04;3.00;98.50
41256;DHT22;26989;45.524;10.938;2023-02-28T06:45:31;3.10;98.30
41256;DHT22;26989;45.524;10.938;2023-02-28T06:47:58;3.30;98.20
41256;DHT22;26989;45.524;10.938;2023-02-28T06:50:26;3.40;98.50
41256;DHT22;26989;45.524;10.938;2023-02-28T06:52:56;3.80;98.10
41256;DHT22;26989;45.524;10.938;2023-02-28T06:55:22;3.80;97.50
41256;DHT22;26989;45.524;10.938;2023-02-28T06:57:49;3.80;97.60
41256;DHT22;26989;45.524;10.938;2023-02-28T07:00:17;4.00;97.60
41256;DHT22;26989;45.524;10.938;2023-02-28T07:02:44;4.10;98.00
41256;DHT22;26989;45.524;10.938;2023-02-28T07:05:11;4.10;97.60
41256;DHT22;26989;45.524;10.938;2023-02-28T07:07:38;4.30;97.30
41256;DHT22;26989;45.524;10.938;2023-02-28T07:10:07;4.40;97.00
41256;DHT22;26989;45.524;10.938;2023-02-28T07:12:34;4.30;96.90
41256;DHT22;26989;45.524;10.938;2023-02-28T07:15:04;4.40;96.50
41256;DHT22;26989;45.524;10.938;2023-02-28T07:17:31;4.40;96.50
41256;DHT22;26989;45.524;10.938;2023-02-28T07:19:58;4.60;96.30
41256;DHT22;26989;45.524;10.938;2023-02-28T07:22:24;5.00;95.90
41256;DHT22;26989;45.524;10.938;2023-02-28T07:24:51;5.00;95.70
41256;DHT22;26989;45.524;10.938;2023-02-28T07:27:18;5.20;95.70
41256;DHT22;26989;45.524;10.938;2023-02-28T07:29:50;5.20;95.50
41256;DHT22;26989;45.524;10.938;2023-02-28T07:32:17;5.20;95.10
41256;DHT22;26989;45.524;10.938;2023-02-28T07:34:45;5.30;95.10
41256;DHT22;26989;45.524;10.938;2023-02-28T07:37:12;5.40;95.60
41256;DHT22;26989;45.524;10.938;2023-02-28T07:39:39;5.40;95.50
41256;DHT22;26989;45.524;10.938;2023-02-28T07:42:08;5.50;95.70
41256;DHT22;26989;45.524;10.938;2023-02-28T07:44:41;5.50;95.60
41256;DHT22;26989;45.524;10.938;2023-02-28T07:47:09;5.60;95.40
41256;DHT22;26989;45.524;10.938;2023-02-28T07:49:39;5.70;95.10
41256;DHT22;26989;45.524;10.938;2023-02-28T07:52:07;5.80;95.50
41256;DHT22;26989;45.524;10.938;2023-02-28T07:54:36;6.00;95.20
41256;DHT22;26989;45.524;10.938;2023-02-28T07:57:03;6.10;95.30
41256;DHT22;26989;45.524;10.938;2023-02-28T07:59:30;6.10;95.10
41256;DHT22;26989;45.524;10.938;2023-02-28T08:01:58;6.30;94.90
41256;DHT22;26989;45.524;10.938;2023-02-28T08:04:26;6.10;95.10
41256;DHT22;26989;45.524;10.938;2023-02-28T08:06:52;6.20;95.00
41256;DHT22;26989;45.524;10.938;2023-02-28T08:09:20;6.40;95.20
41256;DHT22;26989;45.524;10.938;2023-02-28T08:11:46;6.40;94.70
41256;DHT22;26989;45.524;10.938;2023-02-28T08:14:13;6.40;94.30
41256;DHT22;26989;45.524;10.938;2023-02-28T08:16:40;6.20;94.80
41256;DHT22;26989;45.524;10.938;2023-02-28T08:19:07;6.30;95.10
41256;DHT22;26989;45.524;10.938;2023-02-28T08:21:34;6.30;94.50
41256;DHT22;26989;45.524;10.938;2023-02-28T08:24:00;6.10;94.40
41256;DHT22;26989;45.524;10.938;2023-02-28T08:26:27;6.10;94.80
41256;DHT22;26989;45.524;10.938;2023-02-28T08:28:55;6.30;94.70
41256;DHT22;26989;45.524;10.938;2023-02-28T08:31:24;6.40;94.30
41256;DHT22;26989;45.524;10.938;2023-02-28T08:33:51;6.40;94.50
41256;DHT22;26989;45.524;10.938;2023-02-28T08:36:19;6.30;94.10
41256;DHT22;26989;45.524;10.938;2023-02-28T08:38:46;6.20;94.10
41256;DHT22;26989;45.524;10.938;2023-02-28T08:41:13;6.30;94.30
41256;DHT22;26989;45.524;10.938;2023-02-28T08:43:41;6.50;94.20
41256;DHT22;26989;45.524;10.938;2023-02-28T08:46:09;6.40;94.10
41256;DHT22;26989;45.524;10.938;2023-02-28T08:48:37;6.50;94.20
41256;DHT22;26989;45.524;10.938;2023-02-28T08:51:10;6.10;93.90
41256;DHT22;26989;45.524;10.938;2023-02-28T08:53:38;6.30;94.50
41256;DHT22;26989;45.524;10.938;2023-02-28T08:56:09;6.20;94.00
41256;DHT22;26989;45.524;10.938;2023-02-28T08:58:36;6.30;93.90
41256;DHT22;26989;45.524;10.938;2023-02-28T09:03:36;6.50;94.00
41256;DHT22;26989;45.524;10.938;2023-02-28T09:06:03;6.60;94.00
41256;DHT22;26989;45.524;10.938;2023-02-28T09:08:31;6.70;93.90
41256;DHT22;26989;45.524;10.938;2023-02-28T09:10:58;7.00;93.60
41256;DHT22;26989;45.524;10.938;2023-02-28T09:13:28;7.20;93.30
41256;DHT22;26989;45.524;10.938;2023-02-28T09:15:58;7.30;93.40
41256;DHT22;26989;45.524;10.938;2023-02-28T09:18:26;7.40;93.00
41256;DHT22;26989;45.524;10.938;2023-02-28T09:20:54;7.40;92.60
41256;DHT22;26989;45.524;10.938;2023-02-28T09:23:21;7.40;93.00
41256;DHT22;26989;45.524;10.938;2023-02-28T09:25:53;7.50;92.70
41256;DHT22;26989;45.524;10.938;2023-02-28T09:28:20;7.40;92.70
41256;DHT22;26989;45.524;10.938;2023-02-28T09:30:49;7.40;92.80
41256;DHT22;26989;45.524;10.938;2023-02-28T09:33:18;7.20;92.20
41256;DHT22;26989;45.524;10.938;2023-02-28T09:35:48;7.10;92.30
41256;DHT22;26989;45.524;10.938;2023-02-28T09:38:16;7.30;92.60
41256;DHT22;26989;45.524;10.938;2023-02-28T09:40:51;7.20;92.30
41256;DHT22;26989;45.524;10.938;2023-02-28T09:43:25;7.00;92.40
41256;DHT22;26989;45.524;10.938;2023-02-28T09:45:59;7.10;92.50
41256;DHT22;26989;45.524;10.938;2023-02-28T09:48:32;6.80;93.00
41256;DHT22;26989;45.524;10.938;2023-02-28T09:53:38;7.10;92.60
41256;DHT22;26989;45.524;10.938;2023-02-28T09:56:21;6.80;92.80
41256;DHT22;26989;45.524;10.938;2023-02-28T10:04:35;7.50;92.40
41256;DHT22;26989;45.524;10.938;2023-02-28T10:09:52;7.50;91.50
41256;DHT22;26989;45.524;10.938;2023-02-28T10:12:20;7.60;92.00
41256;DHT22;26989;45.524;10.938;2023-02-28T10:14:51;7.60;91.70
41256;DHT22;26989;45.524;10.938;2023-02-28T10:17:26;7.60;91.80
41256;DHT22;26989;45.524;10.938;2023-02-28T10:20:02;7.60;91.50
41256;DHT22;26989;45.524;10.938;2023-02-28T10:25:21;7.40;92.00
41256;DHT22;26989;45.524;10.938;2023-02-28T10:27:49;7.60;91.90
41256;DHT22;26989;45.524;10.938;2023-02-28T10:30:17;7.70;91.50
41256;DHT22;26989;45.524;10.938;2023-02-28T10:32:51;7.50;90.80
41256;DHT22;26989;45.524;10.938;2023-02-28T10:35:22;7.40;92.00
41256;DHT22;26989;45.524;10.938;2023-02-28T10:37:55;7.60;92.00
41256;DHT22;26989;45.524;10.938;2023-02-28T10:43:00;7.90;91.50
41256;DHT22;26989;45.524;10.938;2023-02-28T10:45:32;7.90;91.50
41256;DHT22;26989;45.524;10.938;2023-02-28T10:48:01;7.60;91.10
41256;DHT22;26989;45.524;10.938;2023-02-28T10:50:43;7.60;91.00
41256;DHT22;26989;45.524;10.938;2023-02-28T10:53:38;7.60;90.90
41256;DHT22;26989;45.524;10.938;2023-02-28T10:56:26;7.80;91.50
41256;DHT22;26989;45.524;10.938;2023-02-28T11:01:42;7.80;90.90
41256;DHT22;26989;45.524;10.938;2023-02-28T11:04:33;8.00;90.70
41256;DHT22;26989;45.524;10.938;2023-02-28T11:09:34;8.00;90.00
41256;DHT22;26989;45.524;10.938;2023-02-28T11:12:19;7.80;88.50
41256;DHT22;26989;45.524;10.938;2023-02-28T11:14:58;7.80;90.10
41256;DHT22;26989;45.524;10.938;2023-02-28T11:17:29;7.90;90.10
41256;DHT22;26989;45.524;10.938;2023-02-28T11:20:02;7.70;90.10
41256;DHT22;26989;45.524;10.938;2023-02-28T11:22:34;7.80;90.20
41256;DHT22;26989;45.524;10.938;2023-02-28T11:25:08;7.80;89.40
41256;DHT22;26989;45.524;10.938;2023-02-28T11:30:04;8.30;89.40
41256;DHT22;26989;45.524;10.938;2023-02-28T11:32:49;8.40;89.00
41256;DHT22;26989;45.524;10.938;2023-02-28T11:35:38;8.60;88.30
41256;DHT22;26989;45.524;10.938;2023-02-28T11:38:09;8.70;88.40
41256;DHT22;26989;45.524;10.938;2023-02-28T11:43:50;8.60;88.30
41256;DHT22;26989;45.524;10.938;2023-02-28T11:46:36;8.60;87.80
41256;DHT22;26989;45.524;10.938;2023-02-28T11:54:53;8.70;88.80
41256;DHT22;26989;45.524;10.938;2023-02-28T12:00:08;8.80;89.00
41256;DHT22;26989;45.524;10.938;2023-02-28T12:02:49;8.90;89.80
41256;DHT22;26989;45.524;10.938;2023-02-28T12:17:12;9.20;88.60
41256;DHT22;26989;45.524;10.938;2023-02-28T12:28:13;8.60;86.90
41256;DHT22;26989;45.524;10.938;2023-02-28T12:31:01;9.00;88.20
41256;DHT22;26989;45.524;10.938;2023-02-28T12:33:34;9.00;88.60
41256;DHT22;26989;45.524;10.938;2023-02-28T12:36:09;9.10;89.10
41256;DHT22;26989;45.524;10.938;2023-02-28T12:39:01;9.30;88.70
41256;DHT22;26989;45.524;10.938;2023-02-28T12:44:19;9.60;88.40
41256;DHT22;26989;45.524;10.938;2023-02-28T12:46:50;9.70;89.00
41256;DHT22;26989;45.524;10.938;2023-02-28T12:49:56;9.60;88.80
41256;DHT22;26989;45.524;10.938;2023-02-28T12:58:31;9.60;87.80
41256;DHT22;26989;45.524;10.938;2023-02-28T13:09:40;9.40;88.40
41256;DHT22;26989;45.524;10.938;2023-02-28T13:12:14;9.60;88.00
41256;DHT22;26989;45.524;10.938;2023-02-28T13:14:43;9.60;88.10
41256;DHT22;26989;45.524;10.938;2023-02-28T13:17:11;9.70;87.40
41256;DHT22;26989;45.524;10.938;2023-02-28T13:19:44;9.60;86.20
41256;DHT22;26989;45.524;10.938;2023-02-28T13:28:13;9.90;87.50
41256;DHT22;26989;45.524;10.938;2023-02-28T13:46:30;9.90;86.30
41256;DHT22;26989;45.524;10.938;2023-02-28T13:57:33;10.00;87.60
41256;DHT22;26989;45.524;10.938;2023-02-28T14:03:01;10.20;86.40
41256;DHT22;26989;45.524;10.938;2023-02-28T14:05:34;10.30;86.50
41256;DHT22;26989;45.524;10.938;2023-02-28T14:08:18;10.30;87.30
41256;DHT22;26989;45.524;10.938;2023-02-28T14:10:49;10.30;87.80
41256;DHT22;26989;45.524;10.938;2023-02-28T14:13:38;10.40;87.20
41256;DHT22;26989;45.524;10.938;2023-02-28T14:16:17;10.40;86.50
41256;DHT22;26989;45.524;10.938;2023-02-28T14:19:23;10.50;86.60
41256;DHT22;26989;45.524;10.938;2023-02-28T14:38:18;10.40;86.30
41256;DHT22;26989;45.524;10.938;2023-02-28T14:40:46;10.50;86.60
41256;DHT22;26989;45.524;10.938;2023-02-28T14:43:25;10.40;87.30
41256;DHT22;26989;45.524;10.938;2023-02-28T14:45:58;10.30;85.60
41256;DHT22;26989;45.524;10.938;2023-02-28T14:48:26;10.20;87.00
41256;DHT22;26989;45.524;10.938;2023-02-28T14:50:59;10.00;86.60
41256;DHT22;26989;45.524;10.938;2023-02-28T14:53:35;9.90;86.40
41256;DHT22;26989;45.524;10.938;2023-02-28T14:56:02;9.90;87.30
41256;DHT22;26989;45.524;10.938;2023-02-28T14:58:32;9.80;87.90
41256;DHT22;26989;45.524;10.938;2023-02-28T15:01:01;10.00;88.50
41256;DHT22;26989;45.524;10.938;2023-02-28T15:03:35;10.00;87.60
41256;DHT22;26989;45.524;10.938;2023-02-28T15:06:05;10.00;87.50
41256;DHT22;26989;45.524;10.938;2023-02-28T15:08:33;9.90;87.70
41256;DHT22;26989;45.524;10.938;2023-02-28T15:11:06;9.90;88.00
41256;DHT22;26989;45.524;10.938;2023-02-28T15:13:45;9.90;87.90
41256;DHT22;26989;45.524;10.938;2023-02-28T15:16:29;9.80;87.80
41256;DHT22;26989;45.524;10.938;2023-02-28T15:19:00;9.70;88.10
41256;DHT22;26989;45.524;10.938;2023-02-28T15:21:36;9.60;88.40
41256;DHT22;26989;45.524;10.938;2023-02-28T15:24:17;9.60;88.40
41256;DHT22;26989;45.524;10.938;2023-02-28T15:26:56;9.50;89.60
41256;DHT22;26989;45.524;10.938;2023-02-28T15:29:27;9.60;89.00
41256;DHT22;26989;45.524;10.938;2023-02-28T15:32:03;9.70;89.50
41256;DHT22;26989;45.524;10.938;2023-02-28T15:34:38;9.90;89.70
41256;DHT22;26989;45.524;10.938;2023-02-28T15:40:22;10.00;89.10
41256;DHT22;26989;45.524;10.938;2023-02-28T15:48:20;10.00;87.50
41256;DHT22;26989;45.524;10.938;2023-02-28T15:50:52;10.00;88.10
41256;DHT22;26989;45.524;10.938;2023-02-28T15:53:28;10.00;87.30
41256;DHT22;26989;45.524;10.938;2023-02-28T15:56:01;9.90;87.80
41256;DHT22;26989;45.524;10.938;2023-02-28T15:58:28;9.90;87.70
41256;DHT22;26989;45.524;10.938;2023-02-28T16:01:06;9.70;89.20
41256;DHT22;26989;45.524;10.938;2023-02-28T16:03:51;9.60;89.10
41256;DHT22;26989;45.524;10.938;2023-02-28T16:06:37;9.50;89.00
41256;DHT22;26989;45.524;10.938;2023-02-28T16:09:06;9.50;89.70
41256;DHT22;26989;45.524;10.938;2023-02-28T16:11:38;9.40;89.30
41256;DHT22;26989;45.524;10.938;2023-02-28T16:14:05;9.40;89.70
41256;DHT22;26989;45.524;10.938;2023-02-28T16:16:33;9.30;90.50
41256;DHT22;26989;45.524;10.938;2023-02-28T16:19:00;9.20;90.50
41256;DHT22;26989;45.524;10.938;2023-02-28T16:21:27;9.10;90.50
41256;DHT22;26989;45.524;10.938;2023-02-28T16:23:54;9.00;90.70
41256;DHT22;26989;45.524;10.938;2023-02-28T16:26:24;8.90;90.90
41256;DHT22;26989;45.524;10.938;2023-02-28T16:28:53;8.70;91.30
41256;DHT22;26989;45.524;10.938;2023-02-28T16:31:21;8.60;91.40
41256;DHT22;26989;45.524;10.938;2023-02-28T16:33:48;8.50;91.60
41256;DHT22;26989;45.524;10.938;2023-02-28T16:36:20;8.40;91.70
41256;DHT22;26989;45.524;10.938;2023-02-28T16:38:47;8.20;92.10
41256;DHT22;26989;45.524;10.938;2023-02-28T16:41:20;8.10;92.20
41256;DHT22;26989;45.524;10.938;2023-02-28T16:43:49;8.00;92.50
41256;DHT22;26989;45.524;10.938;2023-02-28T16:46:17;7.80;92.50
41256;DHT22;26989;45.524;10.938;2023-02-28T16:48:45;7.70;92.80
41256;DHT22;26989;45.524;10.938;2023-02-28T16:51:13;7.50;93.00
41256;DHT22;26989;45.524;10.938;2023-02-28T16:53:41;7.40;93.30
41256;DHT22;26989;45.524;10.938;2023-02-28T16:56:20;7.30;93.50
41256;DHT22;26989;45.524;10.938;2023-02-28T16:58:49;7.10;93.70
41256;DHT22;26989;45.524;10.938;2023-02-28T17:01:17;7.10;93.70
41256;DHT22;26989;45.524;10.938;2023-02-28T17:03:48;7.10;93.70
41256;DHT22;26989;45.524;10.938;2023-02-28T17:06:20;7.20;93.80
41256;DHT22;26989;45.524;10.938;2023-02-28T17:08:51;6.90;94.10
41256;DHT22;26989;45.524;10.938;2023-02-28T17:11:19;6.80;94.60
41256;DHT22;26989;45.524;10.938;2023-02-28T17:13:46;6.70;94.70
41256;DHT22;26989;45.524;10.938;2023-02-28T17:18:43;6.70;95.20
41256;DHT22;26989;45.524;10.938;2023-02-28T17:21:15;6.70;95.40
41256;DHT22;26989;45.524;10.938;2023-02-28T17:23:43;6.70;95.20
41256;DHT22;26989;45.524;10.938;2023-02-28T17:26:13;6.70;95.20
41256;DHT22;26989;45.524;10.938;2023-02-28T17:28:40;6.60;95.40
41256;DHT22;26989;45.524;10.938;2023-02-28T17:31:08;6.60;95.20
41256;DHT22;26989;45.524;10.938;2023-02-28T17:33:35;6.50;95.30
41256;DHT22;26989;45.524;10.938;2023-02-28T17:36:02;6.40;95.40
41256;DHT22;26989;45.524;10.938;2023-02-28T17:38:29;6.20;95.70
41256;DHT22;26989;45.524;10.938;2023-02-28T17:40:56;6.10;95.80
41256;DHT22;26989;45.524;10.938;2023-02-28T17:43:25;5.90;96.00
41256;DHT22;26989;45.524;10.938;2023-02-28T17:45:53;5.90;96.10
41256;DHT22;26989;45.524;10.938;2023-02-28T17:48:20;5.80;96.10
41256;DHT22;26989;45.524;10.938;2023-02-28T17:50:47;5.70;96.10
41256;DHT22;26989;45.524;10.938;2023-02-28T17:53:14;5.70;96.10
41256;DHT22;26989;45.524;10.938;2023-02-28T17:55:40;5.60;96.20
41256;DHT22;26989;45.524;10.938;2023-02-28T17:58:09;5.60;96.20
41256;DHT22;26989;45.524;10.938;2023-02-28T18:00:37;5.60;96.20
41256;DHT22;26989;45.524;10.938;2023-02-28T18:03:04;5.60;96.20
41256;DHT22;26989;45.524;10.938;2023-02-28T18:05:31;5.60;96.20
41256;DHT22;26989;45.524;10.938;2023-02-28T18:07:58;5.60;96.10
41256;DHT22;26989;45.524;10.938;2023-02-28T18:10:25;5.60;96.20
41256;DHT22;26989;45.524;10.938;2023-02-28T18:12:54;5.50;96.10
41256;DHT22;26989;45.524;10.938;2023-02-28T18:15:21;5.50;96.10
41256;DHT22;26989;45.524;10.938;2023-02-28T18:17:49;5.50;96.10
41256;DHT22;26989;45.524;10.938;2023-02-28T18:20:17;5.30;96.30
41256;DHT22;26989;45.524;10.938;2023-02-28T18:22:44;5.40;96.40
41256;DHT22;26989;45.524;10.938;2023-02-28T18:25:11;5.20;96.60
41256;DHT22;26989;45.524;10.938;2023-02-28T18:27:43;5.10;97.00
41256;DHT22;26989;45.524;10.938;2023-02-28T18:30:20;5.00;96.90
41256;DHT22;26989;45.524;10.938;2023-02-28T18:32:47;4.90;97.20
41256;DHT22;26989;45.524;10.938;2023-02-28T18:35:14;4.80;97.40
41256;DHT22;26989;45.524;10.938;2023-02-28T18:37:41;4.80;97.70